sensor_id;sensor_type;location;lat;lon;timestamp;temperature;humidity
10660;DHT22;5378;53.206;13.316;2024-03-08T00:02:15;1.20;99.90
10660;DHT22;5378;53.206;13.316;2024-03-08T00:05:03;1.20;99.90
10660;DHT22;5378;53.206;13.316;2024-03-08T00:07:50;1.10;99.90
10660;DHT22;5378;53.206;13.316;2024-03-08T00:10:37;1.10;99.90
10660;DHT22;5378;53.206;13.316;2024-03-08T00:13:25;1.00;99.90
10660;DHT22;5378;53.206;13.316;2024-03-08T00:16:13;1.00;99.90
10660;DHT22;5378;53.206;13.316;2024-03-08T00:19:00;1.20;99.90
10660;DHT22;5378;53.206;13.316;2024-03-08T00:21:48;1.10;99.90
10660;DHT22;5378;53.206;13.316;2024-03-08T00:24:35;1.00;99.90
10660;DHT22;5378;53.206;13.316;2024-03-08T00:27:23;1.00;99.90
10660;DHT22;5378;53.206;13.316;2024-03-08T00:30:11;1.00;99.90
10660;DHT22;5378;53.206;13.316;2024-03-08T00:33:00;1.00;99.90
10660;DHT22;5378;53.206;13.316;2024-03-08T00:35:48;1.00;99.90
10660;DHT22;5378;53.206;13.316;2024-03-08T00:38:35;1.00;99.90
10660;DHT22;5378;53.206;13.316;2024-03-08T00:41:22;1.00;99.90
10660;DHT22;5378;53.206;13.316;2024-03-08T00:44:12;1.00;99.90
10660;DHT22;5378;53.206;13.316;2024-03-08T00:46:59;0.90;99.90
10660;DHT22;5378;53.206;13.316;2024-03-08T00:49:47;0.90;99.90
10660;DHT22;5378;53.206;13.316;2024-03-08T00:52:34;0.90;99.90
10660;DHT22;5378;53.206;13.316;2024-03-08T00:55:22;0.90;99.90
10660;DHT22;5378;53.206;13.316;2024-03-08T00:58:09;0.90;99.90
10660;DHT22;5378;53.206;13.316;2024-03-08T01:00:56;0.90;99.90
10660;DHT22;5378;53.206;13.316;2024-03-08T01:03:43;0.80;99.90
10660;DHT22;5378;53.206;13.316;2024-03-08T01:06:32;0.70;99.90
10660;DHT22;5378;53.206;13.316;2024-03-08T01:09:19;0.80;99.90
10660;DHT22;5378;53.206;13.316;2024-03-08T01:12:07;0.80;99.90
10660;DHT22;5378;53.206;13.316;2024-03-08T01:14:56;0.70;99.90
10660;DHT22;5378;53.206;13.316;2024-03-08T01:17:44;0.70;99.90
10660;DHT22;5378;53.206;13.316;2024-03-08T01:20:32;0.70;99.90
10660;DHT22;5378;53.206;13.316;2024-03-08T01:23:20;0.70;99.90
10660;DHT22;5378;53.206;13.316;2024-03-08T01:26:07;0.80;99.90
10660;DHT22;5378;53.206;13.316;2024-03-08T01:28:54;0.80;99.90
10660;DHT22;5378;53.206;13.316;2024-03-08T01:31:41;0.80;99.90
10660;DHT22;5378;53.206;13.316;2024-03-08T01:34:28;0.70;99.90
10660;DHT22;5378;53.206;13.316;2024-03-08T01:37:16;0.70;99.90
10660;DHT22;5378;53.206;13.316;2024-03-08T01:40:06;0.70;99.90
10660;DHT22;5378;53.206;13.316;2024-03-08T01:42:54;0.70;99.90
10660;DHT22;5378;53.206;13.316;2024-03-08T01:45:41;0.70;99.90
10660;DHT22;5378;53.206;13.316;2024-03-08T01:48:28;0.70;99.90
10660;DHT22;5378;53.206;13.316;2024-03-08T01:51:16;0.60;99.90
10660;DHT22;5378;53.206;13.316;2024-03-08T01:54:04;0.60;99.90
10660;DHT22;5378;53.206;13.316;2024-03-08T01:56:52;0.60;99.90
10660;DHT22;5378;53.206;13.316;2024-03-08T01:59:40;0.60;99.90
10660;DHT22;5378;53.206;13.316;2024-03-08T02:02:31;0.60;99.90
10660;DHT22;5378;53.206;13.316;2024-03-08T02:05:19;0.60;99.90
10660;DHT22;5378;53.206;13.316;2024-03-08T02:08:06;0.60;99.90
10660;DHT22;5378;53.206;13.316;2024-03-08T02:10:58;0.60;99.90
10660;DHT22;5378;53.206;13.316;2024-03-08T02:13:47;0.50;99.90
10660;DHT22;5378;53.206;13.316;2024-03-08T02:16:33;0.50;99.90
10660;DHT22;5378;53.206;13.316;2024-03-08T02:19:21;0.50;99.90
10660;DHT22;5378;53.206;13.316;2024-03-08T02:22:09;0.50;99.90
10660;DHT22;5378;53.206;13.316;2024-03-08T02:24:57;0.50;99.90
10660;DHT22;5378;53.206;13.316;2024-03-08T02:27:47;0.50;99.90
10660;DHT22;5378;53.206;13.316;2024-03-08T02:30:34;0.50;99.90
10660;DHT22;5378;53.206;13.316;2024-03-08T02:33:22;0.60;99.90
10660;DHT22;5378;53.206;13.316;2024-03-08T02:36:09;0.60;99.90
10660;DHT22;5378;53.206;13.316;2024-03-08T02:38:59;0.60;99.90
10660;DHT22;5378;53.206;13.316;2024-03-08T02:41:47;0.50;99.90
10660;DHT22;5378;53.206;13.316;2024-03-08T02:44:34;0.50;99.90
10660;DHT22;5378;53.206;13.316;2024-03-08T02:47:21;0.40;99.90
10660;DHT22;5378;53.206;13.316;2024-03-08T02:50:09;0.40;99.90
10660;DHT22;5378;53.206;13.316;2024-03-08T02:52:57;0.50;99.90
10660;DHT22;5378;53.206;13.316;2024-03-08T02:55:46;0.50;99.90
10660;DHT22;5378;53.206;13.316;2024-03-08T02:58:33;0.50;99.90
10660;DHT22;5378;53.206;13.316;2024-03-08T03:01:20;0.50;99.90
10660;DHT22;5378;53.206;13.316;2024-03-08T03:04:08;0.50;99.90
10660;DHT22;5378;53.206;13.316;2024-03-08T03:06:55;0.50;99.90
10660;DHT22;5378;53.206;13.316;2024-03-08T03:09:42;0.50;99.90
10660;DHT22;5378;53.206;13.316;2024-03-08T03:12:31;0.40;99.90
10660;DHT22;5378;53.206;13.316;2024-03-08T03:15:19;0.40;99.90
10660;DHT22;5378;53.206;13.316;2024-03-08T03:18:06;0.30;99.90
10660;DHT22;5378;53.206;13.316;2024-03-08T03:20:54;0.40;99.90
10660;DHT22;5378;53.206;13.316;2024-03-08T03:23:41;0.30;99.90
10660;DHT22;5378;53.206;13.316;2024-03-08T03:26:29;0.20;99.90
10660;DHT22;5378;53.206;13.316;2024-03-08T03:29:18;0.30;99.90
10660;DHT22;5378;53.206;13.316;2024-03-08T03:32:06;0.30;99.90
10660;DHT22;5378;53.206;13.316;2024-03-08T03:34:53;0.30;99.90
10660;DHT22;5378;53.206;13.316;2024-03-08T03:37:41;0.30;99.90
10660;DHT22;5378;53.206;13.316;2024-03-08T03:40:31;0.30;99.90
10660;DHT22;5378;53.206;13.316;2024-03-08T03:43:18;0.30;99.90
10660;DHT22;5378;53.206;13.316;2024-03-08T03:46:07;0.30;99.90
10660;DHT22;5378;53.206;13.316;2024-03-08T03:48:56;0.40;99.90
10660;DHT22;5378;53.206;13.316;2024-03-08T03:51:43;0.30;99.90
10660;DHT22;5378;53.206;13.316;2024-03-08T03:54:31;0.30;99.90
10660;DHT22;5378;53.206;13.316;2024-03-08T03:57:18;0.20;99.90
10660;DHT22;5378;53.206;13.316;2024-03-08T04:00:07;0.30;99.90
10660;DHT22;5378;53.206;13.316;2024-03-08T04:03:01;0.20;99.90
10660;DHT22;5378;53.206;13.316;2024-03-08T04:05:48;0.20;99.90
10660;DHT22;5378;53.206;13.316;2024-03-08T04:08:35;0.20;99.90
10660;DHT22;5378;53.206;13.316;2024-03-08T04:11:22;0.10;99.90
10660;DHT22;5378;53.206;13.316;2024-03-08T04:14:09;0.10;99.90
10660;DHT22;5378;53.206;13.316;2024-03-08T04:16:56;0.10;99.90
10660;DHT22;5378;53.206;13.316;2024-03-08T04:19:45;0.00;99.90
10660;DHT22;5378;53.206;13.316;2024-03-08T04:22:34;0.10;99.90
10660;DHT22;5378;53.206;13.316;2024-03-08T04:25:21;0.10;99.90
10660;DHT22;5378;53.206;13.316;2024-03-08T04:28:08;0.00;99.90
10660;DHT22;5378;53.206;13.316;2024-03-08T04:30:57;0.10;99.90
10660;DHT22;5378;53.206;13.316;2024-03-08T04:33:47;0.10;99.90
10660;DHT22;5378;53.206;13.316;2024-03-08T04:36:35;0.10;99.90
10660;DHT22;5378;53.206;13.316;2024-03-08T04:39:22;0.10;99.90
10660;DHT22;5378;53.206;13.316;2024-03-08T04:42:10;0.20;99.90
10660;DHT22;5378;53.206;13.316;2024-03-08T04:44:57;0.10;99.90
10660;DHT22;5378;53.206;13.316;2024-03-08T04:47:44;0.20;99.90
10660;DHT22;5378;53.206;13.316;2024-03-08T04:50:31;0.20;99.90
10660;DHT22;5378;53.206;13.316;2024-03-08T04:53:20;0.10;99.90
10660;DHT22;5378;53.206;13.316;2024-03-08T04:56:07;0.10;99.90
10660;DHT22;5378;53.206;13.316;2024-03-08T04:58:55;0.00;99.90
10660;DHT22;5378;53.206;13.316;2024-03-08T05:01:42;0.10;99.90
10660;DHT22;5378;53.206;13.316;2024-03-08T05:04:29;0.00;99.90
10660;DHT22;5378;53.206;13.316;2024-03-08T05:07:16;0.00;99.90
10660;DHT22;5378;53.206;13.316;2024-03-08T05:10:06;0.10;99.90
10660;DHT22;5378;53.206;13.316;2024-03-08T05:12:55;0.00;99.90
10660;DHT22;5378;53.206;13.316;2024-03-08T05:15:42;0.00;99.90
10660;DHT22;5378;53.206;13.316;2024-03-08T05:18:30;0.10;99.90
10660;DHT22;5378;53.206;13.316;2024-03-08T05:21:18;0.00;99.90
10660;DHT22;5378;53.206;13.316;2024-03-08T05:24:06;0.00;99.90
10660;DHT22;5378;53.206;13.316;2024-03-08T05:26:57;-0.10;99.90
10660;DHT22;5378;53.206;13.316;2024-03-08T05:29:46;-0.10;99.90
10660;DHT22;5378;53.206;13.316;2024-03-08T05:32:33;-0.10;99.90
10660;DHT22;5378;53.206;13.316;2024-03-08T05:35:20;0.00;99.90
10660;DHT22;5378;53.206;13.316;2024-03-08T05:38:07;-0.10;99.90
10660;DHT22;5378;53.206;13.316;2024-03-08T05:40:55;0.00;99.90
10660;DHT22;5378;53.206;13.316;2024-03-08T05:43:43;0.00;99.90
10660;DHT22;5378;53.206;13.316;2024-03-08T05:46:30;-0.10;99.90
10660;DHT22;5378;53.206;13.316;2024-03-08T05:49:18;-0.10;99.90
10660;DHT22;5378;53.206;13.316;2024-03-08T05:52:05;-0.10;99.90
10660;DHT22;5378;53.206;13.316;2024-03-08T05:54:52;0.00;99.90
10660;DHT22;5378;53.206;13.316;2024-03-08T05:57:39;0.00;99.90
10660;DHT22;5378;53.206;13.316;2024-03-08T06:00:28;0.10;99.90
10660;DHT22;5378;53.206;13.316;2024-03-08T06:03:17;0.10;99.90
10660;DHT22;5378;53.206;13.316;2024-03-08T06:06:07;0.20;99.90
10660;DHT22;5378;53.206;13.316;2024-03-08T06:08:54;0.20;99.90
10660;DHT22;5378;53.206;13.316;2024-03-08T06:11:42;0.30;99.90
10660;DHT22;5378;53.206;13.316;2024-03-08T06:14:29;0.30;99.90
10660;DHT22;5378;53.206;13.316;2024-03-08T06:17:18;0.40;99.90
10660;DHT22;5378;53.206;13.316;2024-03-08T06:20:06;0.50;99.90
10660;DHT22;5378;53.206;13.316;2024-03-08T06:22:56;0.50;99.90
10660;DHT22;5378;53.206;13.316;2024-03-08T06:25:43;0.50;99.90
10660;DHT22;5378;53.206;13.316;2024-03-08T06:28:31;0.60;99.90
10660;DHT22;5378;53.206;13.316;2024-03-08T06:31:20;0.60;99.90
10660;DHT22;5378;53.206;13.316;2024-03-08T06:34:08;0.80;99.90
10660;DHT22;5378;53.206;13.316;2024-03-08T06:36:56;0.80;99.90
10660;DHT22;5378;53.206;13.316;2024-03-08T06:39:46;0.80;99.90
10660;DHT22;5378;53.206;13.316;2024-03-08T06:42:33;0.90;99.90
10660;DHT22;5378;53.206;13.316;2024-03-08T06:45:21;1.00;99.90
10660;DHT22;5378;53.206;13.316;2024-03-08T06:48:09;1.00;99.90
10660;DHT22;5378;53.206;13.316;2024-03-08T06:50:58;1.20;99.90
10660;DHT22;5378;53.206;13.316;2024-03-08T06:53:46;1.20;99.90
10660;DHT22;5378;53.206;13.316;2024-03-08T06:56:33;1.20;99.90
10660;DHT22;5378;53.206;13.316;2024-03-08T06:59:20;1.40;99.90
10660;DHT22;5378;53.206;13.316;2024-03-08T07:02:08;1.40;99.90
10660;DHT22;5378;53.206;13.316;2024-03-08T07:04:55;1.40;99.90
10660;DHT22;5378;53.206;13.316;2024-03-08T07:07:43;1.50;99.90
10660;DHT22;5378;53.206;13.316;2024-03-08T07:10:31;1.40;99.90
10660;DHT22;5378;53.206;13.316;2024-03-08T07:13:18;1.60;99.90
10660;DHT22;5378;53.206;13.316;2024-03-08T07:16:05;1.60;99.90
10660;DHT22;5378;53.206;13.316;2024-03-08T07:18:53;1.50;99.90
10660;DHT22;5378;53.206;13.316;2024-03-08T07:21:40;1.50;99.90
10660;DHT22;5378;53.206;13.316;2024-03-08T07:24:29;1.50;99.90
10660;DHT22;5378;53.206;13.316;2024-03-08T07:27:26;1.40;99.90
10660;DHT22;5378;53.206;13.316;2024-03-08T07:30:15;1.70;99.90
10660;DHT22;5378;53.206;13.316;2024-03-08T07:33:24;1.80;99.90
10660;DHT22;5378;53.206;13.316;2024-03-08T07:36:13;2.00;99.90
10660;DHT22;5378;53.206;13.316;2024-03-08T07:39:00;2.20;99.90
10660;DHT22;5378;53.206;13.316;2024-03-08T07:41:49;2.30;99.90
10660;DHT22;5378;53.206;13.316;2024-03-08T07:44:38;2.30;99.90
10660;DHT22;5378;53.206;13.316;2024-03-08T07:47:26;2.40;99.90
10660;DHT22;5378;53.206;13.316;2024-03-08T07:50:13;2.60;99.90
10660;DHT22;5378;53.206;13.316;2024-03-08T07:53:02;3.10;99.90
10660;DHT22;5378;53.206;13.316;2024-03-08T07:55:50;3.90;99.90
10660;DHT22;5378;53.206;13.316;2024-03-08T07:58:39;4.40;99.90
10660;DHT22;5378;53.206;13.316;2024-03-08T08:01:27;5.00;99.90
10660;DHT22;5378;53.206;13.316;2024-03-08T08:04:14;5.80;99.90
10660;DHT22;5378;53.206;13.316;2024-03-08T08:07:03;6.80;99.90
10660;DHT22;5378;53.206;13.316;2024-03-08T08:09:52;7.30;99.90
10660;DHT22;5378;53.206;13.316;2024-03-08T08:12:39;7.10;99.90
10660;DHT22;5378;53.206;13.316;2024-03-08T08:15:28;6.90;99.90
10660;DHT22;5378;53.206;13.316;2024-03-08T08:18:15;6.90;99.90
10660;DHT22;5378;53.206;13.316;2024-03-08T08:21:05;6.60;99.90
10660;DHT22;5378;53.206;13.316;2024-03-08T08:23:53;6.40;99.90
10660;DHT22;5378;53.206;13.316;2024-03-08T08:26:40;6.20;99.90
10660;DHT22;5378;53.206;13.316;2024-03-08T08:29:28;5.90;99.90
10660;DHT22;5378;53.206;13.316;2024-03-08T08:32:17;5.70;99.90
10660;DHT22;5378;53.206;13.316;2024-03-08T08:35:05;5.80;99.90
10660;DHT22;5378;53.206;13.316;2024-03-08T08:37:53;6.50;99.90
10660;DHT22;5378;53.206;13.316;2024-03-08T08:40:41;7.90;99.90
10660;DHT22;5378;53.206;13.316;2024-03-08T08:43:27;8.80;99.90
10660;DHT22;5378;53.206;13.316;2024-03-08T08:46:17;9.50;99.90
10660;DHT22;5378;53.206;13.316;2024-03-08T08:49:06;10.10;99.90
10660;DHT22;5378;53.206;13.316;2024-03-08T08:51:56;10.60;99.90
10660;DHT22;5378;53.206;13.316;2024-03-08T08:54:46;10.40;99.90
10660;DHT22;5378;53.206;13.316;2024-03-08T08:57:33;10.70;99.90
10660;DHT22;5378;53.206;13.316;2024-03-08T09:00:21;10.80;99.90
10660;DHT22;5378;53.206;13.316;2024-03-08T09:03:13;10.90;99.90
10660;DHT22;5378;53.206;13.316;2024-03-08T09:06:01;10.90;99.90
10660;DHT22;5378;53.206;13.316;2024-03-08T09:08:48;11.00;99.90
10660;DHT22;5378;53.206;13.316;2024-03-08T09:11:36;10.00;99.90
10660;DHT22;5378;53.206;13.316;2024-03-08T09:14:24;9.00;99.90
10660;DHT22;5378;53.206;13.316;2024-03-08T09:17:12;8.10;99.90
10660;DHT22;5378;53.206;13.316;2024-03-08T09:20:04;7.90;99.90
10660;DHT22;5378;53.206;13.316;2024-03-08T09:22:53;8.00;99.90
10660;DHT22;5378;53.206;13.316;2024-03-08T09:25:40;7.80;99.90
10660;DHT22;5378;53.206;13.316;2024-03-08T09:28:29;7.90;99.90
10660;DHT22;5378;53.206;13.316;2024-03-08T09:31:16;7.70;99.90
10660;DHT22;5378;53.206;13.316;2024-03-08T09:34:03;7.40;99.90
10660;DHT22;5378;53.206;13.316;2024-03-08T09:36:50;7.30;99.90
10660;DHT22;5378;53.206;13.316;2024-03-08T09:39:39;7.20;99.90
10660;DHT22;5378;53.206;13.316;2024-03-08T09:42:27;7.20;99.90
10660;DHT22;5378;53.206;13.316;2024-03-08T09:45:14;7.20;99.90
10660;DHT22;5378;53.206;13.316;2024-03-08T09:48:01;7.00;99.90
10660;DHT22;5378;53.206;13.316;2024-03-08T09:50:57;7.00;99.90
10660;DHT22;5378;53.206;13.316;2024-03-08T09:53:44;6.70;99.90
10660;DHT22;5378;53.206;13.316;2024-03-08T09:56:32;6.60;99.90
10660;DHT22;5378;53.206;13.316;2024-03-08T09:59:20;6.50;99.90
10660;DHT22;5378;53.206;13.316;2024-03-08T10:02:28;6.30;99.90
10660;DHT22;5378;53.206;13.316;2024-03-08T10:05:17;6.30;99.90
10660;DHT22;5378;53.206;13.316;2024-03-08T10:08:06;6.40;99.90
10660;DHT22;5378;53.206;13.316;2024-03-08T10:10:54;6.40;99.90
10660;DHT22;5378;53.206;13.316;2024-03-08T10:13:41;6.50;99.90
10660;DHT22;5378;53.206;13.316;2024-03-08T10:16:29;6.40;99.90
10660;DHT22;5378;53.206;13.316;2024-03-08T10:19:16;6.40;99.90
10660;DHT22;5378;53.206;13.316;2024-03-08T10:22:03;6.50;99.90
10660;DHT22;5378;53.206;13.316;2024-03-08T10:24:52;6.50;99.90
10660;DHT22;5378;53.206;13.316;2024-03-08T10:27:39;6.50;99.90
10660;DHT22;5378;53.206;13.316;2024-03-08T10:30:27;6.60;99.90
10660;DHT22;5378;53.206;13.316;2024-03-08T10:33:15;6.60;99.90
10660;DHT22;5378;53.206;13.316;2024-03-08T10:36:03;6.60;99.90
10660;DHT22;5378;53.206;13.316;2024-03-08T10:38:51;6.60;99.90
10660;DHT22;5378;53.206;13.316;2024-03-08T10:41:41;6.70;99.90
10660;DHT22;5378;53.206;13.316;2024-03-08T10:44:48;6.70;99.90
10660;DHT22;5378;53.206;13.316;2024-03-08T10:47:41;6.60;99.90
10660;DHT22;5378;53.206;13.316;2024-03-08T10:50:29;6.80;99.90
10660;DHT22;5378;53.206;13.316;2024-03-08T10:53:18;6.70;99.90
10660;DHT22;5378;53.206;13.316;2024-03-08T10:56:07;6.70;99.90
10660;DHT22;5378;53.206;13.316;2024-03-08T10:58:56;6.90;99.90
10660;DHT22;5378;53.206;13.316;2024-03-08T11:01:43;7.10;99.90
10660;DHT22;5378;53.206;13.316;2024-03-08T11:04:31;7.20;99.90
10660;DHT22;5378;53.206;13.316;2024-03-08T11:07:19;7.00;99.90
10660;DHT22;5378;53.206;13.316;2024-03-08T11:10:18;6.90;99.90
10660;DHT22;5378;53.206;13.316;2024-03-08T11:13:34;6.90;99.90
10660;DHT22;5378;53.206;13.316;2024-03-08T11:16:40;6.90;99.90
10660;DHT22;5378;53.206;13.316;2024-03-08T11:19:31;6.80;99.90
10660;DHT22;5378;53.206;13.316;2024-03-08T11:22:22;6.70;99.90
10660;DHT22;5378;53.206;13.316;2024-03-08T11:25:31;6.70;99.90
10660;DHT22;5378;53.206;13.316;2024-03-08T11:28:20;6.70;99.90
10660;DHT22;5378;53.206;13.316;2024-03-08T11:31:24;6.80;99.90
10660;DHT22;5378;53.206;13.316;2024-03-08T11:34:16;6.90;99.90
10660;DHT22;5378;53.206;13.316;2024-03-08T11:37:05;7.00;99.90
10660;DHT22;5378;53.206;13.316;2024-03-08T11:39:55;7.10;99.90
10660;DHT22;5378;53.206;13.316;2024-03-08T11:42:45;6.90;99.90
10660;DHT22;5378;53.206;13.316;2024-03-08T11:45:34;6.90;99.90
10660;DHT22;5378;53.206;13.316;2024-03-08T11:48:22;6.90;99.90
10660;DHT22;5378;53.206;13.316;2024-03-08T11:51:12;7.00;99.90
10660;DHT22;5378;53.206;13.316;2024-03-08T11:54:01;7.10;99.90
10660;DHT22;5378;53.206;13.316;2024-03-08T11:56:51;7.20;99.90
10660;DHT22;5378;53.206;13.316;2024-03-08T11:59:39;7.20;99.90
10660;DHT22;5378;53.206;13.316;2024-03-08T12:02:26;7.10;99.90
10660;DHT22;5378;53.206;13.316;2024-03-08T12:05:16;7.20;99.90
10660;DHT22;5378;53.206;13.316;2024-03-08T12:08:05;7.20;99.90
10660;DHT22;5378;53.206;13.316;2024-03-08T12:10:54;7.20;99.90
10660;DHT22;5378;53.206;13.316;2024-03-08T12:13:45;7.30;99.90
10660;DHT22;5378;53.206;13.316;2024-03-08T12:16:36;7.40;99.90
10660;DHT22;5378;53.206;13.316;2024-03-08T12:19:23;7.50;99.90
10660;DHT22;5378;53.206;13.316;2024-03-08T12:22:10;7.60;99.90
10660;DHT22;5378;53.206;13.316;2024-03-08T12:25:06;7.60;99.90
10660;DHT22;5378;53.206;13.316;2024-03-08T12:27:56;7.50;99.90
10660;DHT22;5378;53.206;13.316;2024-03-08T12:30:46;7.50;99.90
10660;DHT22;5378;53.206;13.316;2024-03-08T12:33:35;7.60;99.90
10660;DHT22;5378;53.206;13.316;2024-03-08T12:36:22;7.70;99.90
10660;DHT22;5378;53.206;13.316;2024-03-08T12:39:10;7.70;99.90
10660;DHT22;5378;53.206;13.316;2024-03-08T12:41:59;7.60;99.90
10660;DHT22;5378;53.206;13.316;2024-03-08T12:44:46;7.80;99.90
10660;DHT22;5378;53.206;13.316;2024-03-08T12:47:33;7.70;99.90
10660;DHT22;5378;53.206;13.316;2024-03-08T12:50:21;7.90;99.90
10660;DHT22;5378;53.206;13.316;2024-03-08T12:53:08;7.90;99.90
10660;DHT22;5378;53.206;13.316;2024-03-08T12:55:55;7.90;99.90
10660;DHT22;5378;53.206;13.316;2024-03-08T12:58:44;7.90;99.90
10660;DHT22;5378;53.206;13.316;2024-03-08T13:01:31;7.90;99.90
10660;DHT22;5378;53.206;13.316;2024-03-08T13:04:18;7.80;99.90
10660;DHT22;5378;53.206;13.316;2024-03-08T13:07:07;7.80;99.90
10660;DHT22;5378;53.206;13.316;2024-03-08T13:09:55;7.90;99.90
10660;DHT22;5378;53.206;13.316;2024-03-08T13:12:43;8.00;99.90
10660;DHT22;5378;53.206;13.316;2024-03-08T13:15:31;8.00;99.90
10660;DHT22;5378;53.206;13.316;2024-03-08T13:18:19;7.90;99.90
10660;DHT22;5378;53.206;13.316;2024-03-08T13:21:07;7.90;99.90
10660;DHT22;5378;53.206;13.316;2024-03-08T13:23:55;8.00;99.90
10660;DHT22;5378;53.206;13.316;2024-03-08T13:26:44;7.90;99.90
10660;DHT22;5378;53.206;13.316;2024-03-08T13:29:32;8.00;99.90
10660;DHT22;5378;53.206;13.316;2024-03-08T13:32:21;8.00;99.90
10660;DHT22;5378;53.206;13.316;2024-03-08T13:35:10;8.10;99.90
10660;DHT22;5378;53.206;13.316;2024-03-08T13:37:58;8.20;99.90
10660;DHT22;5378;53.206;13.316;2024-03-08T13:40:45;8.10;99.90
10660;DHT22;5378;53.206;13.316;2024-03-08T13:43:34;8.10;99.90
10660;DHT22;5378;53.206;13.316;2024-03-08T13:46:23;8.10;99.90
10660;DHT22;5378;53.206;13.316;2024-03-08T13:49:12;8.10;99.90
10660;DHT22;5378;53.206;13.316;2024-03-08T13:51:59;8.10;99.90
10660;DHT22;5378;53.206;13.316;2024-03-08T13:54:47;8.10;99.70
10660;DHT22;5378;53.206;13.316;2024-03-08T13:57:34;8.10;99.50
10660;DHT22;5378;53.206;13.316;2024-03-08T14:00:22;8.10;99.20
10660;DHT22;5378;53.206;13.316;2024-03-08T14:03:11;8.00;99.10
10660;DHT22;5378;53.206;13.316;2024-03-08T14:05:59;8.10;99.30
10660;DHT22;5378;53.206;13.316;2024-03-08T14:08:46;8.10;99.40
10660;DHT22;5378;53.206;13.316;2024-03-08T14:11:33;8.10;99.40
10660;DHT22;5378;53.206;13.316;2024-03-08T14:14:21;8.30;99.40
10660;DHT22;5378;53.206;13.316;2024-03-08T14:17:09;8.30;99.90
10660;DHT22;5378;53.206;13.316;2024-03-08T14:19:57;8.40;99.90
10660;DHT22;5378;53.206;13.316;2024-03-08T14:22:46;8.40;99.90
10660;DHT22;5378;53.206;13.316;2024-03-08T14:25:33;8.40;99.90
10660;DHT22;5378;53.206;13.316;2024-03-08T14:28:20;8.40;99.90
10660;DHT22;5378;53.206;13.316;2024-03-08T14:31:08;8.30;99.90
10660;DHT22;5378;53.206;13.316;2024-03-08T14:33:57;8.30;99.90
10660;DHT22;5378;53.206;13.316;2024-03-08T14:36:45;8.30;99.90
10660;DHT22;5378;53.206;13.316;2024-03-08T14:39:33;8.30;99.90
10660;DHT22;5378;53.206;13.316;2024-03-08T14:42:20;8.30;99.90
10660;DHT22;5378;53.206;13.316;2024-03-08T14:45:08;8.20;99.90
10660;DHT22;5378;53.206;13.316;2024-03-08T14:47:56;8.20;99.90
10660;DHT22;5378;53.206;13.316;2024-03-08T14:50:44;8.20;99.90
10660;DHT22;5378;53.206;13.316;2024-03-08T14:53:33;8.20;99.90
10660;DHT22;5378;53.206;13.316;2024-03-08T14:56:21;8.30;99.90
10660;DHT22;5378;53.206;13.316;2024-03-08T14:59:08;8.30;99.90
10660;DHT22;5378;53.206;13.316;2024-03-08T15:01:56;8.30;99.90
10660;DHT22;5378;53.206;13.316;2024-03-08T15:04:46;8.30;99.90
10660;DHT22;5378;53.206;13.316;2024-03-08T15:07:39;8.40;99.90
10660;DHT22;5378;53.206;13.316;2024-03-08T15:10:26;8.30;99.90
10660;DHT22;5378;53.206;13.316;2024-03-08T15:13:16;8.30;99.90
10660;DHT22;5378;53.206;13.316;2024-03-08T15:16:09;8.30;99.90
10660;DHT22;5378;53.206;13.316;2024-03-08T15:19:01;8.20;99.90
10660;DHT22;5378;53.206;13.316;2024-03-08T15:21:51;8.20;99.90
10660;DHT22;5378;53.206;13.316;2024-03-08T15:24:42;8.20;99.90
10660;DHT22;5378;53.206;13.316;2024-03-08T15:27:29;8.20;99.90
10660;DHT22;5378;53.206;13.316;2024-03-08T15:30:17;8.20;99.90
10660;DHT22;5378;53.206;13.316;2024-03-08T15:33:08;8.10;99.90
10660;DHT22;5378;53.206;13.316;2024-03-08T15:35:56;8.00;99.90
10660;DHT22;5378;53.206;13.316;2024-03-08T15:38:46;8.00;99.90
10660;DHT22;5378;53.206;13.316;2024-03-08T15:41:35;8.00;99.90
10660;DHT22;5378;53.206;13.316;2024-03-08T15:44:22;7.90;99.90
10660;DHT22;5378;53.206;13.316;2024-03-08T15:47:11;7.80;99.90
10660;DHT22;5378;53.206;13.316;2024-03-08T15:49:58;7.80;99.90
10660;DHT22;5378;53.206;13.316;2024-03-08T15:52:49;7.80;99.90
10660;DHT22;5378;53.206;13.316;2024-03-08T15:55:38;7.90;99.90
10660;DHT22;5378;53.206;13.316;2024-03-08T15:58:27;7.90;99.90
10660;DHT22;5378;53.206;13.316;2024-03-08T16:01:15;7.80;99.90
10660;DHT22;5378;53.206;13.316;2024-03-08T16:04:04;7.70;99.90
10660;DHT22;5378;53.206;13.316;2024-03-08T16:06:52;7.60;99.90
10660;DHT22;5378;53.206;13.316;2024-03-08T16:09:40;7.60;99.90
10660;DHT22;5378;53.206;13.316;2024-03-08T16:12:28;7.60;99.90
10660;DHT22;5378;53.206;13.316;2024-03-08T16:15:15;7.50;99.90
10660;DHT22;5378;53.206;13.316;2024-03-08T16:18:03;7.50;99.90
10660;DHT22;5378;53.206;13.316;2024-03-08T16:20:53;7.50;99.90
10660;DHT22;5378;53.206;13.316;2024-03-08T16:23:41;7.50;99.90
10660;DHT22;5378;53.206;13.316;2024-03-08T16:26:29;7.40;99.90
10660;DHT22;5378;53.206;13.316;2024-03-08T16:29:20;7.40;99.90
10660;DHT22;5378;53.206;13.316;2024-03-08T16:32:08;7.30;99.90
10660;DHT22;5378;53.206;13.316;2024-03-08T16:34:56;7.30;99.90
10660;DHT22;5378;53.206;13.316;2024-03-08T16:37:45;7.30;99.90
10660;DHT22;5378;53.206;13.316;2024-03-08T16:40:33;7.20;99.90
10660;DHT22;5378;53.206;13.316;2024-03-08T16:43:22;7.20;99.90
10660;DHT22;5378;53.206;13.316;2024-03-08T16:46:09;7.10;99.90
10660;DHT22;5378;53.206;13.316;2024-03-08T16:48:57;7.00;99.90
10660;DHT22;5378;53.206;13.316;2024-03-08T16:51:44;6.90;99.90
10660;DHT22;5378;53.206;13.316;2024-03-08T16:54:33;6.90;99.90
10660;DHT22;5378;53.206;13.316;2024-03-08T16:57:20;6.80;99.90
10660;DHT22;5378;53.206;13.316;2024-03-08T17:00:08;6.60;99.90
10660;DHT22;5378;53.206;13.316;2024-03-08T17:03:00;6.60;99.90
10660;DHT22;5378;53.206;13.316;2024-03-08T17:05:48;6.50;99.90
10660;DHT22;5378;53.206;13.316;2024-03-08T17:08:38;6.40;99.90
10660;DHT22;5378;53.206;13.316;2024-03-08T17:11:29;6.30;99.90
10660;DHT22;5378;53.206;13.316;2024-03-08T17:14:18;6.30;99.90
10660;DHT22;5378;53.206;13.316;2024-03-08T17:17:06;6.20;99.90
10660;DHT22;5378;53.206;13.316;2024-03-08T17:19:54;6.20;99.90
10660;DHT22;5378;53.206;13.316;2024-03-08T17:22:41;6.20;99.90
10660;DHT22;5378;53.206;13.316;2024-03-08T17:25:29;6.00;99.90
10660;DHT22;5378;53.206;13.316;2024-03-08T17:28:17;5.90;99.90
10660;DHT22;5378;53.206;13.316;2024-03-08T17:31:05;5.90;99.90
10660;DHT22;5378;53.206;13.316;2024-03-08T17:33:53;5.90;99.90
10660;DHT22;5378;53.206;13.316;2024-03-08T17:36:41;5.80;99.90
10660;DHT22;5378;53.206;13.316;2024-03-08T17:39:29;5.70;99.90
10660;DHT22;5378;53.206;13.316;2024-03-08T17:42:16;5.70;99.90
10660;DHT22;5378;53.206;13.316;2024-03-08T17:45:07;5.70;99.90
10660;DHT22;5378;53.206;13.316;2024-03-08T17:47:59;5.60;99.90
10660;DHT22;5378;53.206;13.316;2024-03-08T17:50:46;5.40;99.90
10660;DHT22;5378;53.206;13.316;2024-03-08T17:53:35;5.40;99.90
10660;DHT22;5378;53.206;13.316;2024-03-08T17:56:22;5.30;99.90
10660;DHT22;5378;53.206;13.316;2024-03-08T17:59:09;5.20;99.90
10660;DHT22;5378;53.206;13.316;2024-03-08T18:01:59;5.20;99.90